createdAt,value
2018-07-30T00:02:19.896Z,22.60
2018-07-30T00:04:56.896Z,22.60
2018-07-30T00:07:31.221Z,22.60
2018-07-30T00:10:08.664Z,22.60
2018-07-30T00:12:49.987Z,22.60
2018-07-30T00:15:24.669Z,22.60
2018-07-30T00:17:59.066Z,22.60
2018-07-30T00:20:33.841Z,22.50
2018-07-30T00:23:10.807Z,22.50
2018-07-30T00:25:45.105Z,22.50
2018-07-30T00:28:25.570Z,22.50
2018-07-30T00:30:59.682Z,22.40
2018-07-30T00:33:34.840Z,22.40
2018-07-30T00:36:10.021Z,22.40
2018-07-30T00:38:45.356Z,22.40
2018-07-30T00:41:19.626Z,22.30
2018-07-30T00:43:56.251Z,22.30
2018-07-30T00:46:32.373Z,22.30
2018-07-30T00:49:07.299Z,22.30
2018-07-30T00:51:43.773Z,22.20
2018-07-30T00:54:19.731Z,22.30
2018-07-30T00:56:54.781Z,22.30
2018-07-30T00:59:29.983Z,22.20
2018-07-30T01:02:05.856Z,22.20
2018-07-30T01:04:40.710Z,22.20
2018-07-30T01:07:16.260Z,22.10
2018-07-30T01:09:51.003Z,22.10
2018-07-30T01:12:25.405Z,22.10
2018-07-30T01:15:01.140Z,22.10
2018-07-30T01:17:37.334Z,22.00
2018-07-30T01:20:12.198Z,21.90
2018-07-30T01:22:47.936Z,21.90
2018-07-30T01:25:26.967Z,21.90
2018-07-30T01:28:06.117Z,21.90
2018-07-30T01:30:41.986Z,21.90
2018-07-30T01:33:17.627Z,21.90
2018-07-30T01:35:53.758Z,21.90
2018-07-30T01:38:29.652Z,21.90
2018-07-30T01:41:04.947Z,21.90
2018-07-30T01:43:40.357Z,21.90
2018-07-30T01:46:16.318Z,21.90
2018-07-30T01:48:52.582Z,21.80
2018-07-30T01:51:26.719Z,21.80
2018-07-30T01:54:02.180Z,21.80
2018-07-30T01:56:37.457Z,21.70
2018-07-30T01:59:13.548Z,21.80
2018-07-30T02:01:48.461Z,21.70
2018-07-30T02:04:25.319Z,21.70
2018-07-30T02:07:00.294Z,21.70
2018-07-30T02:09:35.957Z,21.70
2018-07-30T02:12:11.793Z,21.60
2018-07-30T02:14:46.026Z,21.60
2018-07-30T02:17:20.883Z,21.60
2018-07-30T02:19:54.990Z,21.60
2018-07-30T02:22:31.001Z,21.70
2018-07-30T02:25:08.431Z,21.70
2018-07-30T02:27:43.562Z,21.70
2018-07-30T02:30:19.016Z,21.70
2018-07-30T02:32:53.741Z,21.80
2018-07-30T02:35:31.306Z,21.80
2018-07-30T02:38:05.764Z,21.80
2018-07-30T02:40:44.299Z,21.70
2018-07-30T02:43:19.054Z,21.70
2018-07-30T02:45:53.423Z,21.60
2018-07-30T02:48:33.346Z,21.60
2018-07-30T02:51:09.001Z,21.60
2018-07-30T02:53:43.541Z,21.50
2018-07-30T02:56:19.501Z,21.50
2018-07-30T02:58:54.277Z,21.50
2018-07-30T03:01:29.748Z,21.40
2018-07-30T03:04:04.645Z,21.40
2018-07-30T03:06:45.109Z,21.40
2018-07-30T03:09:20.231Z,21.30
2018-07-30T03:11:54.310Z,21.30
2018-07-30T03:14:29.234Z,21.20
2018-07-30T03:17:04.769Z,21.20
2018-07-30T03:19:39.175Z,21.10
2018-07-30T03:22:14.448Z,21.10
2018-07-30T03:24:49.281Z,21.10
2018-07-30T03:27:24.351Z,21.10
2018-07-30T03:29:58.808Z,21.10
2018-07-30T03:32:34.096Z,21.00
2018-07-30T03:35:09.417Z,21.00
2018-07-30T03:37:43.913Z,20.90
2018-07-30T03:40:19.932Z,20.90
2018-07-30T03:42:55.654Z,20.90
2018-07-30T03:45:33.072Z,20.80
2018-07-30T03:48:08.586Z,20.80
2018-07-30T03:50:44.380Z,20.80
2018-07-30T03:53:19.366Z,20.80
2018-07-30T03:55:53.993Z,20.80
2018-07-30T03:58:29.201Z,20.80
2018-07-30T04:01:03.490Z,20.80
2018-07-30T04:03:38.324Z,20.80
2018-07-30T04:06:14.315Z,20.70
2018-07-30T04:08:49.904Z,20.70
2018-07-30T04:11:24.359Z,20.70
2018-07-30T04:14:00.953Z,20.80
2018-07-30T04:16:39.612Z,20.90
2018-07-30T04:19:14.672Z,20.90
2018-07-30T04:21:49.318Z,21.00
2018-07-30T04:24:24.289Z,21.10
2018-07-30T04:26:59.409Z,21.10
2018-07-30T04:29:35.741Z,21.20
2018-07-30T04:32:16.108Z,21.30
2018-07-30T04:34:55.191Z,21.40
2018-07-30T04:37:30.522Z,21.60
2018-07-30T04:40:07.106Z,21.70
2018-07-30T04:42:43.617Z,21.80
2018-07-30T04:45:20.768Z,21.90
2018-07-30T04:47:55.645Z,22.00
2018-07-30T04:50:30.929Z,22.10
2018-07-30T04:53:05.572Z,22.10
2018-07-30T04:55:40.994Z,22.10
2018-07-30T04:58:18.191Z,22.10
2018-07-30T05:00:56.510Z,22.10
2018-07-30T05:03:32.259Z,22.10
2018-07-30T05:06:06.732Z,22.10
2018-07-30T05:08:41.036Z,22.20
2018-07-30T05:11:16.696Z,22.10
2018-07-30T05:13:53.093Z,22.10
2018-07-30T05:16:29.941Z,22.10
2018-07-30T05:19:04.077Z,22.10
2018-07-30T05:21:41.616Z,22.10
2018-07-30T05:24:18.942Z,22.10
2018-07-30T05:26:54.179Z,22.20
2018-07-30T05:29:30.241Z,22.30
2018-07-30T05:32:10.098Z,22.30
2018-07-30T05:34:46.322Z,22.40
2018-07-30T05:37:20.568Z,22.50
2018-07-30T05:39:56.208Z,22.70
2018-07-30T05:42:31.457Z,22.80
2018-07-30T05:45:08.533Z,22.90
2018-07-30T05:47:47.146Z,23.10
2018-07-30T05:50:23.845Z,23.30
2018-07-30T05:52:59.184Z,23.50
2018-07-30T05:55:35.632Z,23.60
2018-07-30T05:58:11.392Z,23.70
2018-07-30T06:03:23.530Z,23.80
2018-07-30T06:05:58.577Z,23.90
2018-07-30T06:08:32.879Z,23.90
2018-07-30T06:11:08.365Z,24.10
2018-07-30T06:13:46.337Z,24.20
2018-07-30T06:16:20.795Z,24.30
2018-07-30T06:18:55.792Z,24.50
2018-07-30T06:21:30.621Z,24.70
2018-07-30T06:24:05.418Z,24.70
2018-07-30T06:26:39.680Z,24.70
2018-07-30T06:29:15.060Z,24.80
2018-07-30T06:31:50.399Z,24.80
2018-07-30T06:34:25.145Z,24.70
2018-07-30T06:39:58.630Z,24.90
2018-07-30T06:42:33.993Z,25.00
2018-07-30T06:45:10.198Z,25.10
2018-07-30T06:47:44.468Z,25.00
2018-07-30T06:50:19.591Z,25.00
2018-07-30T06:52:56.089Z,25.10
2018-07-30T06:55:32.186Z,25.10
2018-07-30T06:58:07.414Z,25.20
2018-07-30T07:00:42.447Z,25.20
2018-07-30T07:03:19.288Z,25.50
2018-07-30T07:05:54.225Z,25.70
2018-07-30T07:08:33.817Z,25.80
2018-07-30T07:11:10.194Z,26.00
2018-07-30T07:13:44.714Z,26.10
2018-07-30T07:16:20.797Z,26.00
2018-07-30T07:18:57.823Z,26.00
2018-07-30T07:21:32.382Z,26.00
2018-07-30T07:24:08.539Z,26.00
2018-07-30T07:26:44.274Z,26.00
2018-07-30T07:29:18.514Z,26.10
2018-07-30T07:31:53.552Z,26.50
2018-07-30T07:34:28.375Z,26.90
2018-07-30T07:37:04.845Z,27.00
2018-07-30T07:39:41.173Z,26.90
2018-07-30T07:42:15.949Z,26.70
2018-07-30T07:44:51.870Z,26.80
2018-07-30T07:47:26.520Z,26.80
2018-07-30T07:50:01.594Z,27.00
2018-07-30T07:52:39.232Z,27.10
2018-07-30T07:55:14.945Z,27.20
2018-07-30T07:57:51.429Z,27.20
2018-07-30T08:00:25.888Z,27.20
2018-07-30T08:03:05.054Z,27.30
2018-07-30T08:05:39.681Z,27.40
2018-07-30T08:08:15.120Z,27.50
2018-07-30T08:10:51.002Z,27.60
2018-07-30T08:13:30.041Z,27.60
2018-07-30T08:16:08.506Z,27.60
2018-07-30T08:21:17.292Z,27.80
2018-07-30T08:23:54.016Z,27.80
2018-07-30T08:26:30.252Z,27.90
2018-07-30T08:29:09.936Z,27.80
2018-07-30T08:31:48.225Z,27.90
2018-07-30T08:34:24.568Z,28.00
2018-07-30T08:37:03.874Z,28.10
2018-07-30T08:39:44.549Z,28.20
2018-07-30T08:42:21.798Z,28.30
2018-07-30T08:44:56.532Z,28.50
2018-07-30T08:47:32.151Z,28.50
2018-07-30T08:50:07.508Z,28.40
2018-07-30T08:52:45.261Z,28.50
2018-07-30T08:55:19.609Z,28.60
2018-07-30T08:57:55.630Z,28.70
2018-07-30T09:00:30.604Z,28.70
2018-07-30T09:03:05.518Z,28.80
2018-07-30T09:05:39.921Z,28.80
2018-07-30T09:08:15.388Z,28.90
2018-07-30T09:10:49.639Z,29.00
2018-07-30T09:13:25.645Z,29.10
2018-07-30T09:16:00.566Z,29.20
2018-07-30T09:18:36.422Z,29.40
2018-07-30T09:21:12.186Z,29.20
2018-07-30T09:23:46.522Z,29.30
2018-07-30T09:26:21.928Z,29.50
2018-07-30T09:28:57.924Z,29.40
2018-07-30T09:31:34.381Z,29.40
2018-07-30T09:36:45.881Z,29.40
2018-07-30T09:39:22.794Z,29.50
2018-07-30T09:41:58.684Z,29.70
2018-07-30T09:44:33.176Z,29.80
2018-07-30T09:47:07.491Z,30.00
2018-07-30T09:49:42.242Z,30.10
2018-07-30T09:52:22.259Z,30.30
2018-07-30T09:54:57.028Z,30.50
2018-07-30T09:57:32.812Z,30.50
2018-07-30T10:00:08.267Z,30.20
2018-07-30T10:02:44.917Z,30.10
2018-07-30T10:05:20.634Z,30.20
2018-07-30T10:07:55.997Z,30.20
2018-07-30T10:10:31.540Z,30.00
2018-07-30T10:13:06.043Z,30.00
2018-07-30T10:15:42.032Z,30.00
2018-07-30T10:18:16.411Z,30.10
2018-07-30T10:20:52.123Z,30.20
2018-07-30T10:23:31.970Z,30.20
2018-07-30T10:26:07.418Z,30.30
2018-07-30T10:28:43.374Z,30.60
2018-07-30T10:31:20.564Z,30.80
2018-07-30T10:34:00.280Z,31.00
2018-07-30T10:36:38.927Z,30.90
2018-07-30T10:39:13.397Z,30.70
2018-07-30T10:41:48.174Z,30.80
2018-07-30T10:44:24.064Z,30.90
2018-07-30T10:46:58.357Z,31.00
2018-07-30T10:49:33.490Z,31.20
2018-07-30T10:52:10.185Z,31.30
2018-07-30T10:54:46.477Z,31.10
2018-07-30T10:57:22.320Z,31.10
2018-07-30T10:59:57.174Z,31.10
2018-07-30T11:02:37.177Z,31.00
2018-07-30T11:05:12.638Z,31.10
2018-07-30T11:07:47.470Z,31.20
2018-07-30T11:10:22.801Z,31.30
2018-07-30T11:12:58.304Z,31.40
2018-07-30T11:15:42.458Z,31.50
2018-07-30T11:18:17.090Z,31.60
2018-07-30T11:20:52.033Z,31.40
2018-07-30T11:23:27.265Z,31.60
2018-07-30T11:26:05.240Z,31.70
2018-07-30T11:28:43.758Z,31.80
2018-07-30T11:31:21.849Z,32.00
2018-07-30T11:33:57.754Z,32.10
2018-07-30T11:36:31.952Z,32.10
2018-07-30T11:39:10.505Z,32.10
2018-07-30T11:41:45.084Z,32.10
2018-07-30T11:46:55.104Z,32.10
2018-07-30T11:49:30.003Z,32.30
2018-07-30T11:52:05.533Z,32.50
2018-07-30T11:54:41.508Z,32.70
2018-07-30T11:57:17.372Z,32.80
2018-07-30T11:59:51.665Z,33.00
2018-07-30T12:02:25.893Z,33.10
2018-07-30T12:05:00.854Z,33.40
2018-07-30T12:07:36.006Z,33.50
2018-07-30T12:10:13.928Z,33.60
2018-07-30T12:12:54.463Z,33.80
2018-07-30T12:15:28.776Z,34.00
2018-07-30T12:18:06.153Z,34.10
2018-07-30T12:20:45.241Z,34.40
2018-07-30T12:23:22.255Z,34.60
2018-07-30T12:26:00.523Z,35.30
2018-07-30T12:28:37.990Z,35.70
2018-07-30T12:31:15.050Z,36.60
2018-07-30T12:33:57.591Z,37.60
2018-07-30T12:36:34.688Z,37.90
2018-07-30T12:39:13.879Z,38.20
2018-07-30T12:41:51.101Z,38.50
2018-07-30T12:44:28.577Z,38.50
2018-07-30T12:47:08.492Z,37.80
2018-07-30T12:49:42.960Z,38.00
2018-07-30T12:52:19.729Z,38.20
2018-07-30T12:54:55.098Z,38.30
2018-07-30T12:57:30.800Z,38.40
2018-07-30T13:00:06.290Z,39.60
2018-07-30T13:02:42.754Z,40.60
2018-07-30T13:05:18.708Z,40.90
2018-07-30T13:07:53.843Z,41.20
2018-07-30T13:10:31.399Z,41.40
2018-07-30T13:13:07.530Z,43.00
2018-07-30T13:15:42.426Z,44.40
2018-07-30T13:18:19.072Z,45.40
2018-07-30T13:20:54.144Z,46.00
2018-07-30T13:23:32.217Z,46.20
2018-07-30T13:26:08.292Z,46.30
2018-07-30T13:28:44.664Z,46.40
2018-07-30T13:31:18.836Z,47.20
2018-07-30T13:33:53.174Z,46.60
2018-07-30T13:36:27.704Z,44.60
2018-07-30T13:39:04.192Z,43.20
2018-07-30T13:41:39.525Z,43.70
2018-07-30T13:44:17.653Z,45.10
2018-07-30T13:46:55.021Z,46.60
2018-07-30T13:49:30.068Z,47.40
2018-07-30T13:52:06.530Z,48.50
2018-07-30T13:54:42.493Z,49.00
2018-07-30T13:57:20.995Z,49.40
2018-07-30T13:59:57.456Z,50.00
2018-07-30T14:02:36.770Z,50.40
2018-07-30T14:05:12.089Z,49.50
2018-07-30T14:07:47.253Z,47.50
2018-07-30T14:10:21.481Z,46.50
2018-07-30T14:12:56.438Z,46.90
2018-07-30T14:15:33.459Z,47.00
2018-07-30T14:18:14.264Z,48.10
2018-07-30T14:20:52.213Z,47.30
2018-07-30T14:23:29.972Z,46.30
2018-07-30T14:26:07.726Z,46.40
2018-07-30T14:28:44.669Z,46.30
2018-07-30T14:31:19.862Z,46.80
2018-07-30T14:33:55.932Z,46.80
2018-07-30T14:36:33.131Z,46.20
2018-07-30T14:41:54.736Z,44.60
2018-07-30T14:44:44.208Z,43.30
2018-07-30T14:47:20.602Z,42.10
2018-07-30T14:49:57.459Z,41.90
2018-07-30T14:52:31.735Z,42.90
2018-07-30T14:55:08.117Z,44.30
2018-07-30T14:57:44.215Z,46.60
2018-07-30T15:00:18.853Z,48.50
2018-07-30T15:02:54.070Z,50.40
2018-07-30T15:05:30.604Z,51.10
2018-07-30T15:08:06.764Z,52.10
2018-07-30T15:10:41.953Z,52.00
2018-07-30T15:13:26.392Z,51.30
2018-07-30T15:16:05.743Z,51.90
2018-07-30T15:18:44.469Z,52.30
2018-07-30T15:21:26.097Z,51.50
2018-07-30T15:24:04.236Z,51.00
2018-07-30T15:26:46.669Z,51.90
2018-07-30T15:29:32.455Z,53.00
2018-07-30T15:32:07.888Z,52.50
2018-07-30T15:34:44.820Z,52.70
2018-07-30T15:37:19.876Z,53.70
2018-07-30T15:40:01.024Z,53.10
2018-07-30T15:42:42.569Z,53.30
2018-07-30T15:45:26.747Z,53.30
2018-07-30T15:48:00.927Z,53.20
2018-07-30T15:50:36.332Z,51.70
2018-07-30T15:53:11.471Z,49.90
2018-07-30T15:55:46.931Z,48.60
2018-07-30T15:58:22.684Z,45.80
2018-07-30T16:00:57.820Z,44.10
2018-07-30T16:03:33.128Z,42.60
2018-07-30T16:06:09.892Z,42.00
2018-07-30T16:08:45.216Z,42.20
2018-07-30T16:11:21.547Z,44.10
2018-07-30T16:13:56.877Z,46.90
2018-07-30T16:16:36.103Z,49.40
2018-07-30T16:19:15.053Z,51.50
2018-07-30T16:21:49.917Z,51.80
2018-07-30T16:24:28.200Z,51.00
2018-07-30T16:27:06.934Z,52.20
2018-07-30T16:29:41.782Z,52.40
2018-07-30T16:32:21.072Z,52.90
2018-07-30T16:34:57.946Z,52.60
2018-07-30T16:37:34.463Z,52.50
2018-07-30T16:40:09.029Z,52.50
2018-07-30T16:42:46.526Z,52.20
2018-07-30T16:45:25.174Z,50.90
2018-07-30T16:48:04.366Z,49.10
2018-07-30T16:50:38.760Z,47.80
2018-07-30T16:53:13.921Z,46.90
2018-07-30T16:55:49.821Z,47.70
2018-07-30T16:58:27.010Z,47.80
2018-07-30T17:01:08.509Z,47.50
2018-07-30T17:03:46.906Z,47.60
2018-07-30T17:06:21.686Z,47.60
2018-07-30T17:08:56.235Z,46.50
2018-07-30T17:11:31.636Z,44.60
2018-07-30T17:14:10.482Z,42.90
2018-07-30T17:16:45.911Z,41.60
2018-07-30T17:19:22.749Z,40.40
2018-07-30T17:21:58.934Z,39.70
2018-07-30T17:24:38.472Z,39.30
2018-07-30T17:27:21.412Z,39.30
2018-07-30T17:29:57.072Z,40.50
2018-07-30T17:32:33.772Z,40.70
2018-07-30T17:35:08.792Z,41.20
2018-07-30T17:37:43.101Z,42.30
2018-07-30T17:40:17.403Z,43.60
2018-07-30T17:42:52.531Z,43.20
2018-07-30T17:45:28.528Z,42.20
2018-07-30T17:48:03.353Z,42.60
2018-07-30T17:50:37.549Z,42.70
2018-07-30T17:53:19.476Z,43.40
2018-07-30T17:55:54.679Z,43.30
2018-07-30T18:01:04.496Z,43.70
2018-07-30T18:03:38.677Z,43.10
2018-07-30T18:06:13.305Z,42.50
2018-07-30T18:08:47.440Z,41.00
2018-07-30T18:11:22.445Z,39.80
2018-07-30T18:13:56.728Z,38.80
2018-07-30T18:16:34.419Z,37.90
2018-07-30T18:19:08.645Z,37.20
2018-07-30T18:21:45.634Z,36.50
2018-07-30T18:24:21.282Z,36.10
2018-07-30T18:26:56.188Z,35.80
2018-07-30T18:29:31.833Z,35.40
2018-07-30T18:32:08.014Z,35.10
2018-07-30T18:34:42.555Z,34.70
2018-07-30T18:37:17.656Z,34.50
2018-07-30T18:39:51.927Z,34.20
2018-07-30T18:42:26.124Z,33.90
2018-07-30T18:45:01.940Z,33.80
2018-07-30T18:47:37.710Z,33.60
2018-07-30T18:50:14.497Z,33.40
2018-07-30T18:52:50.701Z,33.10
2018-07-30T18:55:25.407Z,32.80
2018-07-30T18:58:00.680Z,32.50
2018-07-30T19:00:35.988Z,32.20
2018-07-30T19:03:11.306Z,31.90
2018-07-30T19:05:48.529Z,31.70
2018-07-30T19:08:22.948Z,31.50
2018-07-30T19:10:58.695Z,31.30
2018-07-30T19:13:40.244Z,31.10
2018-07-30T19:16:15.964Z,31.00
2018-07-30T19:18:54.742Z,30.80
2018-07-30T19:21:32.065Z,30.70
2018-07-30T19:24:12.324Z,30.60
2018-07-30T19:26:48.337Z,30.40
2018-07-30T19:29:23.216Z,30.30
2018-07-30T19:31:58.931Z,30.20
2018-07-30T19:34:34.905Z,30.10
2018-07-30T19:37:10.012Z,30.00
2018-07-30T19:39:46.260Z,29.90
2018-07-30T19:42:20.409Z,29.80
2018-07-30T19:44:54.625Z,29.70
2018-07-30T19:47:32.321Z,29.60
2018-07-30T19:50:09.872Z,29.50
2018-07-30T19:52:45.182Z,29.40
2018-07-30T19:55:19.482Z,29.30
2018-07-30T19:57:53.943Z,29.30
2018-07-30T20:00:27.942Z,29.20
2018-07-30T20:03:03.221Z,29.10
2018-07-30T20:05:37.793Z,28.90
2018-07-30T20:08:12.987Z,28.80
2018-07-30T20:10:47.820Z,28.70
2018-07-30T20:13:22.142Z,28.60
2018-07-30T20:15:57.521Z,28.60
2018-07-30T20:18:33.697Z,28.50
2018-07-30T20:21:09.363Z,28.40
2018-07-30T20:23:45.155Z,28.40
2018-07-30T20:26:19.577Z,28.30
2018-07-30T20:28:53.893Z,28.30
2018-07-30T20:31:29.058Z,28.20
2018-07-30T20:34:03.387Z,28.10
2018-07-30T20:36:39.152Z,28.00
2018-07-30T20:39:14.958Z,27.90
2018-07-30T20:41:49.323Z,27.90
2018-07-30T20:44:23.582Z,27.80
2018-07-30T20:47:00.616Z,27.70
2018-07-30T20:49:37.573Z,27.70
2018-07-30T20:52:14.983Z,27.60
2018-07-30T20:54:49.308Z,27.50
2018-07-30T20:57:24.906Z,27.50
2018-07-30T21:00:00.765Z,27.40
2018-07-30T21:02:35.824Z,27.40
2018-07-30T21:05:10.203Z,27.40
2018-07-30T21:07:46.639Z,27.40
2018-07-30T21:10:23.272Z,27.30
2018-07-30T21:12:59.572Z,27.30
2018-07-30T21:15:34.567Z,27.30
2018-07-30T21:18:09.561Z,27.30
2018-07-30T21:20:44.568Z,27.20
2018-07-30T21:23:19.604Z,27.20
2018-07-30T21:25:54.657Z,27.10
2018-07-30T21:28:29.059Z,27.10
2018-07-30T21:31:03.581Z,27.00
2018-07-30T21:33:43.605Z,26.90
2018-07-30T21:36:19.789Z,26.80
2018-07-30T21:38:56.011Z,26.80
2018-07-30T21:41:30.704Z,26.70
2018-07-30T21:44:06.152Z,26.70
2018-07-30T21:46:44.876Z,26.60
2018-07-30T21:49:20.068Z,26.50
2018-07-30T21:51:54.914Z,26.40
2018-07-30T21:54:29.367Z,26.30
2018-07-30T21:57:04.480Z,26.30
2018-07-30T21:59:40.544Z,26.20
2018-07-30T22:02:16.046Z,26.10
2018-07-30T22:04:59.089Z,26.10
2018-07-30T22:10:09.776Z,26.00
2018-07-30T22:12:44.107Z,26.00
2018-07-30T22:15:19.329Z,25.90
2018-07-30T22:17:53.661Z,25.90
2018-07-30T22:20:29.414Z,26.00
2018-07-30T22:23:12.511Z,26.00
2018-07-30T22:25:49.229Z,26.00
2018-07-30T22:28:24.009Z,26.00
2018-07-30T22:31:00.429Z,26.00
2018-07-30T22:33:42.577Z,26.00
2018-07-30T22:36:17.934Z,26.00
2018-07-30T22:38:52.167Z,26.00
2018-07-30T22:41:26.391Z,26.00
2018-07-30T22:44:01.565Z,26.00
2018-07-30T22:46:36.655Z,25.90
2018-07-30T22:49:11.179Z,25.80
2018-07-30T22:51:45.564Z,25.80
2018-07-30T22:54:20.135Z,25.70
2018-07-30T22:56:54.336Z,25.60
2018-07-30T22:59:28.773Z,25.60
2018-07-30T23:02:03.096Z,25.50
2018-07-30T23:04:38.334Z,25.40
2018-07-30T23:07:12.728Z,25.30
2018-07-30T23:09:48.268Z,25.20
2018-07-30T23:12:24.146Z,25.20
2018-07-30T23:15:00.108Z,25.10
2018-07-30T23:17:36.524Z,25.10
2018-07-30T23:20:11.059Z,25.00
2018-07-30T23:22:46.496Z,25.00
2018-07-30T23:25:22.066Z,25.00
2018-07-30T23:27:57.152Z,24.90
2018-07-30T23:30:31.508Z,24.90
2018-07-30T23:33:07.167Z,24.80
2018-07-30T23:35:41.386Z,24.70
2018-07-30T23:38:16.675Z,24.70
2018-07-30T23:40:52.268Z,24.60
2018-07-30T23:43:27.411Z,24.50
2018-07-30T23:46:03.391Z,24.40
2018-07-30T23:48:37.552Z,24.40
2018-07-30T23:51:11.892Z,24.30
2018-07-30T23:53:47.547Z,24.30
2018-07-30T23:56:21.837Z,24.30
2018-07-30T23:58:56.986Z,24.20
